createdAt,value
2017-01-16T00:00:39.453Z,5.8
2017-01-16T00:01:39.468Z,5.76
2017-01-16T00:02:39.483Z,5.84
2017-01-16T00:03:39.493Z,5.82
2017-01-16T00:04:39.499Z,5.76
2017-01-16T00:05:39.516Z,5.73
2017-01-16T00:06:39.524Z,5.83
2017-01-16T00:07:39.538Z,5.79
2017-01-16T00:08:39.546Z,5.8
2017-01-16T00:09:39.560Z,5.8
2017-01-16T00:10:39.568Z,5.82
2017-01-16T00:11:39.581Z,5.8
2017-01-16T00:12:39.593Z,5.76
2017-01-16T00:13:39.605Z,5.75
2017-01-16T00:14:39.619Z,5.75
2017-01-16T00:15:39.627Z,5.76
2017-01-16T00:16:40.058Z,5.72
2017-01-16T00:17:39.650Z,5.76
2017-01-16T00:18:39.668Z,5.72
2017-01-16T00:19:39.671Z,5.71
2017-01-16T00:20:39.684Z,5.69
2017-01-16T00:21:39.699Z,5.68
2017-01-16T00:22:39.710Z,5.64
2017-01-16T00:23:39.718Z,5.69
2017-01-16T00:24:39.734Z,5.72
2017-01-16T00:25:39.747Z,5.59
2017-01-16T00:26:39.754Z,5.69
2017-01-16T00:27:39.767Z,5.71
2017-01-16T00:28:39.782Z,5.71
2017-01-16T00:29:39.794Z,5.66
2017-01-16T00:30:39.802Z,5.72
2017-01-16T00:31:39.815Z,5.73
2017-01-16T00:32:39.818Z,5.64
2017-01-16T00:33:39.835Z,5.75
2017-01-16T00:34:39.851Z,5.62
2017-01-16T00:35:39.857Z,5.72
2017-01-16T00:36:39.872Z,5.65
2017-01-16T00:37:39.884Z,5.69
2017-01-16T00:38:40.038Z,5.71
2017-01-16T00:39:39.996Z,5.62
2017-01-16T00:40:40.124Z,5.71
2017-01-16T00:41:39.928Z,5.64
2017-01-16T00:42:39.937Z,5.66
2017-01-16T00:43:39.951Z,5.68
2017-01-16T00:44:39.970Z,5.57
2017-01-16T00:45:39.974Z,5.71
2017-01-16T00:46:39.983Z,5.73
2017-01-16T00:47:39.993Z,5.72
2017-01-16T00:48:40.006Z,5.73
2017-01-16T00:49:40.018Z,5.73
2017-01-16T00:50:40.036Z,5.72
2017-01-16T00:51:40.035Z,5.75
2017-01-16T00:52:40.048Z,5.61
2017-01-16T00:53:40.068Z,5.69
2017-01-16T00:54:40.082Z,5.69
2017-01-16T00:55:40.084Z,5.79
2017-01-16T00:56:40.097Z,5.68
2017-01-16T00:57:40.109Z,5.68
2017-01-16T00:58:40.122Z,5.79
2017-01-16T00:59:40.250Z,5.73
2017-01-16T01:00:40.658Z,5.71
2017-01-16T01:01:40.253Z,5.76
2017-01-16T01:02:40.254Z,5.76
2017-01-16T01:03:40.266Z,5.83
2017-01-16T01:04:40.277Z,5.82
2017-01-16T01:05:40.295Z,5.84
2017-01-16T01:06:40.402Z,5.79
2017-01-16T01:07:40.398Z,5.83
2017-01-16T01:08:40.409Z,5.79
2017-01-16T01:09:40.419Z,5.79
2017-01-16T01:10:40.373Z,5.79
2017-01-16T01:11:40.562Z,5.76
2017-01-16T01:12:43.320Z,5.73
2017-01-16T01:13:40.307Z,5.72
2017-01-16T01:14:40.349Z,5.8
2017-01-16T01:15:40.358Z,5.8
2017-01-16T01:16:40.408Z,5.82
2017-01-16T01:17:40.414Z,5.79
2017-01-16T01:18:40.353Z,5.75
2017-01-16T01:19:40.390Z,5.8
2017-01-16T01:20:40.380Z,5.75
2017-01-16T01:21:40.397Z,5.82
2017-01-16T01:22:40.399Z,5.75
2017-01-16T01:23:40.411Z,5.79
2017-01-16T01:24:40.561Z,5.73
2017-01-16T01:25:40.574Z,5.71
2017-01-16T01:26:40.447Z,5.68
2017-01-16T01:27:40.463Z,5.59
2017-01-16T01:28:40.470Z,5.66
2017-01-16T01:29:40.483Z,5.65
2017-01-16T01:30:40.489Z,5.65
2017-01-16T01:31:40.624Z,5.69
2017-01-16T01:32:40.516Z,5.69
2017-01-16T01:33:40.520Z,5.64
2017-01-16T01:34:40.535Z,5.64
2017-01-16T01:35:40.554Z,5.64
2017-01-16T01:36:40.559Z,5.65
2017-01-16T01:37:40.565Z,5.64
2017-01-16T01:38:40.611Z,5.59
2017-01-16T01:39:40.643Z,5.71
2017-01-16T01:40:40.604Z,5.68
2017-01-16T01:41:40.609Z,5.65
2017-01-16T01:42:40.630Z,5.68
2017-01-16T01:43:40.640Z,5.69
2017-01-16T01:44:40.763Z,5.68
2017-01-16T01:45:40.686Z,5.57
2017-01-16T01:46:40.795Z,5.65
2017-01-16T01:47:40.684Z,5.65
2017-01-16T01:48:40.699Z,5.62
2017-01-16T01:49:40.706Z,5.59
2017-01-16T01:50:40.716Z,5.53
2017-01-16T01:51:40.726Z,5.51
2017-01-16T01:52:40.743Z,5.56
2017-01-16T01:53:40.754Z,5.54
2017-01-16T01:54:40.766Z,5.57
2017-01-16T01:55:40.779Z,5.59
2017-01-16T01:56:40.791Z,5.57
2017-01-16T01:57:40.793Z,5.57
2017-01-16T01:58:40.862Z,5.5
2017-01-16T01:59:41.056Z,5.48
2017-01-16T02:00:40.834Z,5.48
2017-01-16T02:01:40.848Z,5.59
2017-01-16T02:02:40.904Z,5.56
2017-01-16T02:03:41.012Z,5.5
2017-01-16T02:04:40.876Z,5.48
2017-01-16T02:05:40.890Z,5.59
2017-01-16T02:06:40.905Z,5.51
2017-01-16T02:07:40.971Z,5.53
2017-01-16T02:08:41.017Z,5.51
2017-01-16T02:09:40.936Z,5.48
2017-01-16T02:10:40.950Z,5.54
2017-01-16T02:11:40.959Z,5.48
2017-01-16T02:12:40.969Z,5.5
2017-01-16T02:13:41.096Z,5.53
2017-01-16T02:14:40.993Z,5.46
2017-01-16T02:15:41.007Z,5.46
2017-01-16T02:16:41.028Z,5.46
2017-01-16T02:17:41.029Z,5.44
2017-01-16T02:18:41.129Z,5.48
2017-01-16T02:19:41.095Z,5.44
2017-01-16T02:20:41.186Z,5.44
2017-01-16T02:21:41.476Z,5.43
2017-01-16T02:22:41.085Z,5.44
2017-01-16T02:23:41.098Z,5.39
2017-01-16T02:24:41.221Z,5.47
2017-01-16T02:25:41.114Z,5.41
2017-01-16T02:26:41.127Z,5.44
2017-01-16T02:27:41.325Z,5.44
2017-01-16T02:28:41.153Z,5.35
2017-01-16T02:29:41.161Z,5.35
2017-01-16T02:30:41.173Z,5.32
2017-01-16T02:31:41.182Z,5.39
2017-01-16T02:32:41.199Z,5.43
2017-01-16T02:33:41.207Z,5.41
2017-01-16T02:34:41.218Z,5.47
2017-01-16T02:35:41.235Z,5.43
2017-01-16T02:36:41.240Z,5.43
2017-01-16T02:37:41.250Z,5.43
2017-01-16T02:38:41.264Z,5.39
2017-01-16T02:39:41.275Z,5.43
2017-01-16T02:40:41.285Z,5.43
2017-01-16T02:41:41.491Z,5.44
2017-01-16T02:42:41.500Z,5.41
2017-01-16T02:43:41.321Z,5.46
2017-01-16T02:44:41.327Z,5.43
2017-01-16T02:45:41.350Z,5.41
2017-01-16T02:46:41.356Z,5.46
2017-01-16T02:47:41.365Z,5.38
2017-01-16T02:48:41.490Z,5.41
2017-01-16T02:49:41.394Z,5.39
2017-01-16T02:50:41.399Z,5.47
2017-01-16T02:51:41.475Z,5.44
2017-01-16T02:52:41.710Z,5.39
2017-01-16T02:53:41.432Z,5.39
2017-01-16T02:54:41.445Z,5.35
2017-01-16T02:55:41.456Z,5.44
2017-01-16T02:56:41.468Z,5.39
2017-01-16T02:57:41.481Z,5.38
2017-01-16T02:58:41.491Z,5.44
2017-01-16T02:59:41.500Z,5.43
2017-01-16T03:00:41.511Z,5.39
2017-01-16T03:01:41.527Z,5.44
2017-01-16T03:02:41.535Z,5.46
2017-01-16T03:03:41.552Z,5.32
2017-01-16T03:04:41.559Z,5.33
2017-01-16T03:05:41.567Z,5.36
2017-01-16T03:06:41.580Z,5.41
2017-01-16T03:07:41.589Z,5.38
2017-01-16T03:08:41.607Z,5.44
2017-01-16T03:09:41.618Z,5.44
2017-01-16T03:10:41.626Z,5.46
2017-01-16T03:11:41.633Z,5.47
2017-01-16T03:12:41.648Z,5.39
2017-01-16T03:13:41.659Z,5.44
2017-01-16T03:14:41.671Z,5.41
2017-01-16T03:15:41.683Z,5.38
2017-01-16T03:16:41.691Z,5.44
2017-01-16T03:17:41.701Z,5.33
2017-01-16T03:18:41.715Z,5.43
2017-01-16T03:19:41.723Z,5.44
2017-01-16T03:20:41.740Z,5.38
2017-01-16T03:21:41.748Z,5.41
2017-01-16T03:22:41.760Z,5.36
2017-01-16T03:23:41.772Z,5.46
2017-01-16T03:24:41.786Z,5.44
2017-01-16T03:25:41.792Z,5.48
2017-01-16T03:26:41.806Z,5.47
2017-01-16T03:27:41.814Z,5.46
2017-01-16T03:28:41.824Z,5.53
2017-01-16T03:29:41.845Z,5.46
2017-01-16T03:30:41.847Z,5.47
2017-01-16T03:31:41.866Z,5.5
2017-01-16T03:32:41.870Z,5.5
2017-01-16T03:33:41.881Z,5.5
2017-01-16T03:34:41.896Z,5.51
2017-01-16T03:35:41.901Z,5.5
2017-01-16T03:36:41.917Z,5.5
2017-01-16T03:37:41.927Z,5.51
2017-01-16T03:38:41.941Z,5.57
2017-01-16T03:39:41.946Z,5.54
2017-01-16T03:40:42.077Z,5.61
2017-01-16T03:41:42.062Z,5.5
2017-01-16T03:42:42.096Z,5.5
2017-01-16T03:43:42.088Z,5.62
2017-01-16T03:44:42.098Z,5.57
2017-01-16T03:45:42.105Z,5.53
2017-01-16T03:46:42.213Z,5.53
2017-01-16T03:47:42.358Z,5.59
2017-01-16T03:48:42.224Z,5.5
2017-01-16T03:49:42.231Z,5.48
2017-01-16T03:50:42.242Z,5.5
2017-01-16T03:51:42.247Z,5.47
2017-01-16T03:52:42.094Z,5.47
2017-01-16T03:53:42.110Z,5.53
2017-01-16T03:54:42.129Z,5.48
2017-01-16T03:55:42.132Z,5.47
2017-01-16T03:56:42.149Z,5.5
2017-01-16T03:57:42.156Z,5.48
2017-01-16T03:58:42.167Z,5.5
2017-01-16T03:59:42.177Z,5.47
2017-01-16T04:00:42.186Z,5.43
2017-01-16T04:01:42.291Z,5.46
2017-01-16T04:02:43.707Z,5.48
2017-01-16T04:03:42.231Z,5.48
2017-01-16T04:04:42.241Z,5.51
2017-01-16T04:05:42.249Z,5.56
2017-01-16T04:06:42.253Z,5.51
2017-01-16T04:07:42.320Z,5.51
2017-01-16T04:08:42.366Z,5.47
2017-01-16T04:09:42.287Z,5.47
2017-01-16T04:10:42.421Z,5.54
2017-01-16T04:11:42.311Z,5.59
2017-01-16T04:12:42.375Z,5.5
2017-01-16T04:13:42.340Z,5.5
2017-01-16T04:14:42.342Z,5.62
2017-01-16T04:15:42.356Z,5.5
2017-01-16T04:16:42.453Z,5.61
2017-01-16T04:17:42.380Z,5.54
2017-01-16T04:18:42.392Z,5.47
2017-01-16T04:19:42.400Z,5.59
2017-01-16T04:20:42.409Z,5.48
2017-01-16T04:21:42.424Z,5.47
2017-01-16T04:22:42.433Z,5.48
2017-01-16T04:23:42.457Z,5.5
2017-01-16T04:24:42.459Z,5.48
2017-01-16T04:25:42.560Z,5.56
2017-01-16T04:26:42.479Z,5.5
2017-01-16T04:27:42.496Z,5.5
2017-01-16T04:28:42.503Z,5.5
2017-01-16T04:29:42.516Z,5.54
2017-01-16T04:30:42.526Z,5.57
2017-01-16T04:31:42.535Z,5.51
2017-01-16T04:32:42.554Z,5.48
2017-01-16T04:33:42.554Z,5.48
2017-01-16T04:34:42.570Z,5.54
2017-01-16T04:35:42.584Z,5.5
2017-01-16T04:36:42.591Z,5.5
2017-01-16T04:37:42.606Z,5.5
2017-01-16T04:38:42.639Z,5.59
2017-01-16T04:39:42.628Z,5.59
2017-01-16T04:40:42.639Z,5.57
2017-01-16T04:41:42.653Z,5.48
2017-01-16T04:42:42.660Z,5.56
2017-01-16T04:43:42.668Z,5.53
2017-01-16T04:44:42.686Z,5.5
2017-01-16T04:45:42.695Z,5.47
2017-01-16T04:46:42.705Z,5.5
2017-01-16T04:47:42.831Z,5.5
2017-01-16T04:48:42.822Z,5.43
2017-01-16T04:49:42.850Z,5.47
2017-01-16T04:50:42.965Z,5.41
2017-01-16T04:51:42.878Z,5.46
2017-01-16T04:52:42.976Z,5.39
2017-01-16T04:53:42.986Z,5.47
2017-01-16T04:54:42.994Z,5.46
2017-01-16T04:55:43.002Z,5.44
2017-01-16T04:56:42.930Z,5.48
2017-01-16T04:57:42.882Z,5.43
2017-01-16T04:58:42.887Z,5.41
2017-01-16T04:59:42.849Z,5.43
2017-01-16T05:00:42.946Z,5.43
2017-01-16T05:01:42.904Z,5.43
2017-01-16T05:02:42.913Z,5.43
2017-01-16T05:03:42.897Z,5.44
2017-01-16T05:04:42.913Z,5.44
2017-01-16T05:05:42.920Z,5.41
2017-01-16T05:06:42.930Z,5.43
2017-01-16T05:07:42.945Z,5.41
2017-01-16T05:08:42.953Z,5.39
2017-01-16T05:09:42.963Z,5.44
2017-01-16T05:10:42.979Z,5.41
2017-01-16T05:11:42.983Z,5.39
2017-01-16T05:12:43.113Z,5.35
2017-01-16T05:13:43.010Z,5.32
2017-01-16T05:14:43.137Z,5.41
2017-01-16T05:15:43.034Z,5.36
2017-01-16T05:16:43.163Z,5.3
2017-01-16T05:17:43.255Z,5.38
2017-01-16T05:18:43.175Z,5.38
2017-01-16T05:19:43.079Z,5.43
2017-01-16T05:20:43.088Z,5.35
2017-01-16T05:21:43.216Z,5.35
2017-01-16T05:22:43.221Z,5.32
2017-01-16T05:23:43.189Z,5.36
2017-01-16T05:24:43.133Z,5.3
2017-01-16T05:25:43.142Z,5.3
2017-01-16T05:26:43.156Z,5.3
2017-01-16T05:27:43.164Z,5.33
2017-01-16T05:28:43.290Z,5.35
2017-01-16T05:29:43.193Z,5.48
2017-01-16T05:30:43.198Z,5.35
2017-01-16T05:31:43.325Z,5.32
2017-01-16T05:32:43.223Z,5.32
2017-01-16T05:33:43.231Z,5.29
2017-01-16T05:34:43.243Z,5.32
2017-01-16T05:35:43.422Z,5.38
2017-01-16T05:36:43.269Z,5.29
2017-01-16T05:37:43.277Z,5.29
2017-01-16T05:38:43.432Z,5.32
2017-01-16T05:39:43.299Z,5.28
2017-01-16T05:40:43.311Z,5.3
2017-01-16T05:41:43.320Z,5.33
2017-01-16T05:42:43.332Z,5.41
2017-01-16T05:43:43.342Z,5.32
2017-01-16T05:44:43.355Z,5.44
2017-01-16T05:45:43.489Z,5.36
2017-01-16T05:46:43.379Z,5.47
2017-01-16T05:47:43.392Z,5.33
2017-01-16T05:48:43.399Z,5.35
2017-01-16T05:49:43.417Z,5.36
2017-01-16T05:50:43.537Z,5.35
2017-01-16T05:51:43.460Z,5.3
2017-01-16T05:52:43.558Z,5.44
2017-01-16T05:53:43.460Z,5.43
2017-01-16T05:54:43.467Z,5.35
2017-01-16T05:55:43.483Z,5.36
2017-01-16T05:56:43.606Z,5.46
2017-01-16T05:57:43.504Z,5.32
2017-01-16T05:58:43.511Z,5.35
2017-01-16T05:59:43.639Z,5.44
2017-01-16T06:00:43.935Z,5.41
2017-01-16T06:01:43.547Z,5.43
2017-01-16T06:02:43.561Z,5.39
2017-01-16T06:03:43.568Z,5.41
2017-01-16T06:04:43.583Z,5.47
2017-01-16T06:05:43.706Z,5.44
2017-01-16T06:06:43.714Z,5.35
2017-01-16T06:07:43.610Z,5.43
2017-01-16T06:08:43.628Z,5.43
2017-01-16T06:09:43.750Z,5.41
2017-01-16T06:10:43.855Z,5.43
2017-01-16T06:11:43.660Z,5.46
2017-01-16T06:12:43.670Z,5.41
2017-01-16T06:13:43.682Z,5.35
2017-01-16T06:14:43.689Z,5.43
2017-01-16T06:15:43.704Z,5.44
2017-01-16T06:16:43.877Z,5.48
2017-01-16T06:17:43.723Z,5.41
2017-01-16T06:18:43.735Z,5.44
2017-01-16T06:19:43.887Z,5.38
2017-01-16T06:20:43.869Z,5.48
2017-01-16T06:21:43.881Z,5.44
2017-01-16T06:22:43.890Z,5.39
2017-01-16T06:23:43.805Z,5.48
2017-01-16T06:24:43.916Z,5.36
2017-01-16T06:25:43.814Z,5.44
2017-01-16T06:26:43.920Z,5.32
2017-01-16T06:27:43.955Z,5.44
2017-01-16T06:28:43.844Z,5.43
2017-01-16T06:29:43.977Z,5.36
2017-01-16T06:30:43.991Z,5.35
2017-01-16T06:31:43.990Z,5.33
2017-01-16T06:32:44.007Z,5.3
2017-01-16T06:33:44.016Z,5.29
2017-01-16T06:34:43.912Z,5.3
2017-01-16T06:35:43.926Z,5.41
2017-01-16T06:36:43.935Z,5.38
2017-01-16T06:37:43.947Z,5.39
2017-01-16T06:38:44.068Z,5.32
2017-01-16T06:39:43.973Z,5.25
2017-01-16T06:40:43.978Z,5.32
2017-01-16T06:41:44.000Z,5.32
2017-01-16T06:42:44.187Z,5.3
2017-01-16T06:43:44.012Z,5.3
2017-01-16T06:44:44.026Z,5.36
2017-01-16T06:45:44.039Z,5.39
2017-01-16T06:46:44.048Z,5.38
2017-01-16T06:47:44.064Z,5.44
2017-01-16T06:48:44.070Z,5.38
2017-01-16T06:49:44.084Z,5.43
2017-01-16T06:50:44.200Z,5.43
2017-01-16T06:51:44.106Z,5.39
2017-01-16T06:52:44.253Z,5.38
2017-01-16T06:53:44.128Z,5.35
2017-01-16T06:54:44.135Z,5.39
2017-01-16T06:55:44.147Z,5.44
2017-01-16T06:56:44.184Z,5.43
2017-01-16T06:57:44.284Z,5.43
2017-01-16T06:58:44.179Z,5.38
2017-01-16T06:59:44.264Z,5.38
2017-01-16T07:00:44.206Z,5.38
2017-01-16T07:01:44.318Z,5.38
2017-01-16T07:02:44.228Z,5.39
2017-01-16T07:03:44.235Z,5.36
2017-01-16T07:04:44.263Z,5.47
2017-01-16T07:05:44.377Z,5.44
2017-01-16T07:06:44.270Z,5.38
2017-01-16T07:07:44.284Z,5.44
2017-01-16T07:08:44.287Z,5.46
2017-01-16T07:09:44.304Z,5.43
2017-01-16T07:10:44.312Z,5.39
2017-01-16T07:11:44.324Z,5.43
2017-01-16T07:12:44.336Z,5.35
2017-01-16T07:13:44.355Z,5.48
2017-01-16T07:14:44.372Z,5.47
2017-01-16T07:15:44.855Z,5.46
2017-01-16T07:16:44.381Z,5.46
2017-01-16T07:17:44.501Z,5.47
2017-01-16T07:18:44.402Z,5.44
2017-01-16T07:19:44.415Z,5.47
2017-01-16T07:20:44.422Z,5.54
2017-01-16T07:21:44.513Z,5.44
2017-01-16T07:22:44.446Z,5.47
2017-01-16T07:23:44.576Z,5.47
2017-01-16T07:24:44.481Z,5.48
2017-01-16T07:25:44.479Z,5.43
2017-01-16T07:26:44.491Z,5.41
2017-01-16T07:27:44.498Z,5.48
2017-01-16T07:28:44.539Z,5.48
2017-01-16T07:29:44.523Z,5.51
2017-01-16T07:30:44.534Z,5.44
2017-01-16T07:31:44.661Z,5.54
2017-01-16T07:32:44.556Z,5.44
2017-01-16T07:33:44.568Z,5.46
2017-01-16T07:34:44.695Z,5.48
2017-01-16T07:35:44.592Z,5.48
2017-01-16T07:36:44.817Z,5.47
2017-01-16T07:37:44.727Z,5.48
2017-01-16T07:38:44.630Z,5.48
2017-01-16T07:39:44.635Z,5.59
2017-01-16T07:40:44.656Z,5.48
2017-01-16T07:41:44.656Z,5.48
2017-01-16T07:42:44.675Z,5.5
2017-01-16T07:43:44.686Z,5.5
2017-01-16T07:44:44.802Z,5.47
2017-01-16T07:45:44.704Z,5.43
2017-01-16T07:46:44.712Z,5.38
2017-01-16T07:47:44.843Z,5.43
2017-01-16T07:48:44.737Z,5.43
2017-01-16T07:49:44.749Z,5.5
2017-01-16T07:50:44.760Z,5.35
2017-01-16T07:51:44.773Z,5.35
2017-01-16T07:52:44.925Z,5.36
2017-01-16T07:53:44.789Z,5.44
2017-01-16T07:54:44.804Z,5.3
2017-01-16T07:55:44.811Z,5.3
2017-01-16T07:56:44.826Z,5.32
2017-01-16T07:57:44.837Z,5.32
2017-01-16T07:58:44.844Z,5.29
2017-01-16T07:59:44.861Z,5.35
2017-01-16T08:00:44.960Z,5.44
2017-01-16T08:01:44.883Z,5.28
2017-01-16T08:02:44.892Z,5.33
2017-01-16T08:03:44.904Z,5.32
2017-01-16T08:04:44.912Z,5.36
2017-01-16T08:05:45.067Z,5.29
2017-01-16T08:06:44.936Z,5.3
2017-01-16T08:07:44.947Z,5.44
2017-01-16T08:08:44.964Z,5.32
2017-01-16T08:09:44.968Z,5.35
2017-01-16T08:10:45.102Z,5.38
2017-01-16T08:11:44.992Z,5.32
2017-01-16T08:12:45.111Z,5.28
2017-01-16T08:13:45.013Z,5.26
2017-01-16T08:14:45.023Z,5.3
2017-01-16T08:15:45.034Z,5.33
2017-01-16T08:16:45.044Z,5.35
2017-01-16T08:17:45.059Z,5.41
2017-01-16T08:18:45.185Z,5.28
2017-01-16T08:19:45.078Z,5.41
2017-01-16T08:20:45.257Z,5.35
2017-01-16T08:21:45.096Z,5.36
2017-01-16T08:22:45.112Z,5.39
2017-01-16T08:23:45.123Z,5.33
2017-01-16T08:24:45.138Z,5.32
2017-01-16T08:25:45.358Z,5.33
2017-01-16T08:26:45.162Z,5.35
2017-01-16T08:27:45.170Z,5.3
2017-01-16T08:28:45.180Z,5.41
2017-01-16T08:29:45.189Z,5.28
2017-01-16T08:30:45.208Z,5.3
2017-01-16T08:31:45.327Z,5.3
2017-01-16T08:32:45.221Z,5.33
2017-01-16T08:33:45.355Z,5.33
2017-01-16T08:34:45.246Z,5.38
2017-01-16T08:35:45.257Z,5.32
2017-01-16T08:36:45.268Z,5.3
2017-01-16T08:37:45.285Z,5.33
2017-01-16T08:38:45.344Z,5.47
2017-01-16T08:39:45.303Z,5.46
2017-01-16T08:40:45.316Z,5.41
2017-01-16T08:41:45.326Z,5.35
2017-01-16T08:42:45.337Z,5.33
2017-01-16T08:43:45.347Z,5.38
2017-01-16T08:44:45.359Z,5.41
2017-01-16T08:45:45.368Z,5.29
2017-01-16T08:46:45.378Z,5.35
2017-01-16T08:47:45.391Z,5.3
2017-01-16T08:48:45.404Z,5.3
2017-01-16T08:49:45.416Z,5.29
2017-01-16T08:50:45.429Z,5.39
2017-01-16T08:51:45.436Z,5.44
2017-01-16T08:52:45.448Z,5.41
2017-01-16T08:53:45.457Z,5.32
2017-01-16T08:54:45.470Z,5.41
2017-01-16T08:55:45.609Z,5.39
2017-01-16T08:56:45.488Z,5.44
2017-01-16T08:57:45.503Z,5.41
2017-01-16T08:58:45.516Z,5.44
2017-01-16T08:59:45.529Z,5.41
2017-01-16T09:00:45.533Z,5.41
2017-01-16T09:01:45.548Z,5.46
2017-01-16T09:02:45.561Z,5.53
2017-01-16T09:03:45.570Z,5.43
2017-01-16T09:04:45.652Z,5.48
2017-01-16T09:05:45.590Z,5.46
2017-01-16T09:06:45.601Z,5.54
2017-01-16T09:07:45.615Z,5.48
2017-01-16T09:08:45.624Z,5.56
2017-01-16T09:09:45.636Z,5.57
2017-01-16T09:10:45.653Z,5.48
2017-01-16T09:11:45.658Z,5.56
2017-01-16T09:12:45.677Z,5.5
2017-01-16T09:13:45.683Z,5.54
2017-01-16T09:14:45.690Z,5.57
2017-01-16T09:15:45.707Z,5.56
2017-01-16T09:16:45.748Z,5.64
2017-01-16T09:17:45.728Z,5.64
2017-01-16T09:18:45.741Z,5.64
2017-01-16T09:19:45.749Z,5.72
2017-01-16T09:20:45.762Z,5.66
2017-01-16T09:21:45.772Z,5.71
2017-01-16T09:22:45.780Z,5.61
2017-01-16T09:23:45.918Z,5.65
2017-01-16T09:24:45.801Z,5.65
2017-01-16T09:25:45.819Z,5.65
2017-01-16T09:26:45.829Z,5.79
2017-01-16T09:27:45.843Z,5.65
2017-01-16T09:28:45.852Z,5.64
2017-01-16T09:29:45.868Z,5.65
2017-01-16T09:30:45.871Z,5.62
2017-01-16T09:31:45.886Z,5.69
2017-01-16T09:32:45.899Z,5.61
2017-01-16T09:33:45.911Z,5.61
2017-01-16T09:34:45.915Z,5.57
2017-01-16T09:35:45.936Z,5.57
2017-01-16T09:36:45.944Z,5.68
2017-01-16T09:37:45.962Z,5.69
2017-01-16T09:38:45.964Z,5.69
2017-01-16T09:39:46.093Z,5.64
2017-01-16T09:40:45.991Z,5.68
2017-01-16T09:41:46.000Z,5.69
2017-01-16T09:42:46.016Z,5.66
2017-01-16T09:43:46.023Z,5.65
2017-01-16T09:44:46.036Z,5.65
2017-01-16T09:45:46.048Z,5.61
2017-01-16T09:46:46.057Z,5.64
2017-01-16T09:47:46.066Z,5.57
2017-01-16T09:48:46.081Z,5.57
2017-01-16T09:49:46.094Z,5.51
2017-01-16T09:50:46.104Z,5.61
2017-01-16T09:51:46.114Z,5.61
2017-01-16T09:52:46.129Z,5.62
2017-01-16T09:53:46.140Z,5.66
2017-01-16T09:54:46.150Z,5.68
2017-01-16T09:55:46.159Z,5.64
2017-01-16T09:56:46.168Z,5.59
2017-01-16T09:57:46.184Z,5.62
2017-01-16T09:58:46.193Z,5.56
2017-01-16T09:59:46.205Z,5.68
2017-01-16T10:00:46.217Z,5.72
2017-01-16T10:01:46.231Z,5.73
2017-01-16T10:02:46.637Z,5.64
2017-01-16T10:03:46.252Z,5.61
2017-01-16T10:04:46.260Z,5.61
2017-01-16T10:05:46.273Z,5.57
2017-01-16T10:06:46.285Z,5.61
2017-01-16T10:07:46.292Z,5.54
2017-01-16T10:08:46.308Z,5.59
2017-01-16T10:09:46.318Z,5.62
2017-01-16T10:10:46.332Z,5.65
2017-01-16T10:11:46.338Z,5.48
2017-01-16T10:12:46.353Z,5.5
2017-01-16T10:13:46.369Z,5.59
2017-01-16T10:14:46.375Z,5.54
2017-01-16T10:15:46.384Z,5.48
2017-01-16T10:16:46.400Z,5.43
2017-01-16T10:17:46.413Z,5.47
2017-01-16T10:18:46.423Z,5.5
2017-01-16T10:19:46.434Z,5.54
2017-01-16T10:20:46.440Z,5.5
2017-01-16T10:21:46.454Z,5.48
2017-01-16T10:22:46.467Z,5.48
2017-01-16T10:23:46.476Z,5.54
2017-01-16T10:24:46.489Z,5.54
2017-01-16T10:25:46.504Z,5.47
2017-01-16T10:26:46.512Z,5.5
2017-01-16T10:27:46.526Z,5.57
2017-01-16T10:28:46.539Z,5.56
2017-01-16T10:29:46.546Z,5.48
2017-01-16T10:30:46.557Z,5.51
2017-01-16T10:31:46.568Z,5.59
2017-01-16T10:32:46.576Z,5.59
2017-01-16T10:33:46.592Z,5.61
2017-01-16T10:34:46.602Z,5.59
2017-01-16T10:35:46.612Z,5.59
2017-01-16T10:36:46.625Z,5.68
2017-01-16T10:37:46.636Z,5.62
2017-01-16T10:38:46.649Z,5.71
2017-01-16T10:39:46.665Z,5.71
2017-01-16T10:40:46.674Z,5.65
2017-01-16T10:41:46.680Z,5.69
2017-01-16T10:42:46.696Z,5.64
2017-01-16T10:43:46.704Z,5.61
2017-01-16T10:44:46.716Z,5.62
2017-01-16T10:45:46.724Z,5.69
2017-01-16T10:46:46.740Z,5.64
2017-01-16T10:47:46.748Z,5.64
2017-01-16T10:48:46.766Z,5.71
2017-01-16T10:49:46.773Z,5.71
2017-01-16T10:50:46.787Z,5.79
2017-01-16T10:51:46.805Z,5.72
2017-01-16T10:52:46.813Z,5.73
2017-01-16T10:53:46.817Z,5.62
2017-01-16T10:54:46.830Z,5.62
2017-01-16T10:55:46.864Z,5.65
2017-01-16T10:56:46.852Z,5.64
2017-01-16T10:57:46.868Z,5.62
2017-01-16T10:58:46.880Z,5.66
2017-01-16T10:59:46.886Z,5.66
2017-01-16T11:00:46.901Z,5.65
2017-01-16T11:01:46.918Z,5.66
2017-01-16T11:02:46.920Z,5.64
2017-01-16T11:03:46.934Z,5.65
2017-01-16T11:04:46.944Z,5.54
2017-01-16T11:05:46.954Z,5.62
2017-01-16T11:06:46.969Z,5.62
2017-01-16T11:07:46.980Z,5.64
2017-01-16T11:08:46.988Z,5.65
2017-01-16T11:09:47.003Z,5.64
2017-01-16T11:10:47.014Z,5.65
2017-01-16T11:11:47.022Z,5.64
2017-01-16T11:12:47.043Z,5.65
2017-01-16T11:13:47.043Z,5.59
2017-01-16T11:14:47.057Z,5.69
2017-01-16T11:15:47.070Z,5.66
2017-01-16T11:16:47.084Z,5.61
2017-01-16T11:17:47.113Z,5.65
2017-01-16T11:18:47.099Z,5.57
2017-01-16T11:19:47.113Z,5.59
2017-01-16T11:20:47.123Z,5.61
2017-01-16T11:21:47.139Z,5.59
2017-01-16T11:22:47.147Z,5.54
2017-01-16T11:23:47.187Z,5.62
2017-01-16T11:24:47.169Z,5.54
2017-01-16T11:25:47.183Z,5.54
2017-01-16T11:26:47.192Z,5.54
2017-01-16T11:27:47.204Z,5.51
2017-01-16T11:28:47.216Z,5.48
2017-01-16T11:29:47.229Z,5.53
2017-01-16T11:30:47.237Z,5.56
2017-01-16T11:31:47.248Z,5.61
2017-01-16T11:32:47.259Z,5.48
2017-01-16T11:33:47.272Z,5.57
2017-01-16T11:34:47.283Z,5.62
2017-01-16T11:35:47.293Z,5.57
2017-01-16T11:36:47.313Z,5.59
2017-01-16T11:37:47.314Z,5.65
2017-01-16T11:38:47.328Z,5.61
2017-01-16T11:39:47.341Z,5.69
2017-01-16T11:40:47.351Z,5.68
2017-01-16T11:41:47.363Z,5.68
2017-01-16T11:42:47.373Z,5.68
2017-01-16T11:43:47.787Z,5.72
2017-01-16T11:44:47.397Z,5.59
2017-01-16T11:45:47.407Z,5.66
2017-01-16T11:46:47.418Z,5.71
2017-01-16T11:47:47.429Z,5.65
2017-01-16T11:48:47.440Z,5.66
2017-01-16T11:49:47.453Z,5.65
2017-01-16T11:50:47.461Z,5.65
2017-01-16T11:51:47.495Z,5.62
2017-01-16T11:52:47.481Z,5.65
2017-01-16T11:53:47.499Z,5.66
2017-01-16T11:54:47.507Z,5.64
2017-01-16T11:55:47.520Z,5.73
2017-01-16T11:56:47.533Z,5.62
2017-01-16T11:57:47.540Z,5.75
2017-01-16T11:58:47.555Z,5.68
2017-01-16T11:59:47.565Z,5.59
2017-01-16T12:00:47.580Z,5.68
2017-01-16T12:01:47.586Z,5.66
2017-01-16T12:02:47.596Z,5.68
2017-01-16T12:03:47.609Z,5.66
2017-01-16T12:04:47.622Z,5.66
2017-01-16T12:05:47.631Z,5.65
2017-01-16T12:06:47.644Z,5.65
2017-01-16T12:07:47.654Z,5.62
2017-01-16T12:08:47.666Z,5.64
2017-01-16T12:09:47.682Z,5.64
2017-01-16T12:10:47.687Z,5.71
2017-01-16T12:11:47.703Z,5.68
2017-01-16T12:12:47.716Z,5.62
2017-01-16T12:13:47.722Z,5.71
2017-01-16T12:14:47.735Z,5.64
2017-01-16T12:15:47.746Z,5.64
2017-01-16T12:16:47.758Z,5.65
2017-01-16T12:17:47.765Z,5.71
2017-01-16T12:18:47.780Z,5.65
2017-01-16T12:19:47.792Z,5.65
2017-01-16T12:20:47.802Z,5.61
2017-01-16T12:21:47.810Z,5.71
2017-01-16T12:22:47.825Z,5.62
2017-01-16T12:23:47.837Z,5.64
2017-01-16T12:24:47.846Z,5.69
2017-01-16T12:25:47.860Z,5.61
2017-01-16T12:26:47.866Z,5.59
2017-01-16T12:27:47.886Z,5.68
2017-01-16T12:28:47.898Z,5.66
2017-01-16T12:29:47.904Z,5.62
2017-01-16T12:30:47.915Z,5.75
2017-01-16T12:31:47.925Z,5.72
2017-01-16T12:32:47.938Z,5.75
2017-01-16T12:33:47.953Z,5.76
2017-01-16T12:34:47.963Z,5.79
2017-01-16T12:35:47.970Z,5.65
2017-01-16T12:36:47.981Z,5.56
2017-01-16T12:37:47.994Z,5.69
2017-01-16T12:38:48.012Z,5.65
2017-01-16T12:39:48.015Z,5.66
2017-01-16T12:40:48.026Z,5.72
2017-01-16T12:41:48.039Z,5.68
2017-01-16T12:42:48.076Z,5.68
2017-01-16T12:43:48.060Z,5.65
2017-01-16T12:44:48.072Z,5.61
2017-01-16T12:45:48.081Z,5.64
2017-01-16T12:46:48.090Z,5.72
2017-01-16T12:47:48.105Z,5.68
2017-01-16T12:48:48.119Z,5.64
2017-01-16T12:49:48.130Z,5.65
2017-01-16T12:50:48.139Z,5.62
2017-01-16T12:51:48.149Z,5.65
2017-01-16T12:52:48.159Z,5.64
2017-01-16T12:53:48.172Z,5.68
2017-01-16T12:54:48.187Z,5.66
2017-01-16T12:55:48.197Z,5.65
2017-01-16T12:56:48.207Z,5.65
2017-01-16T12:57:48.220Z,5.64
2017-01-16T12:58:48.227Z,5.68
2017-01-16T12:59:48.246Z,5.69
2017-01-16T13:00:48.257Z,5.69
2017-01-16T13:01:48.264Z,5.64
2017-01-16T13:02:48.270Z,5.68
2017-01-16T13:03:48.287Z,5.65
2017-01-16T13:04:48.295Z,5.73
2017-01-16T13:05:48.308Z,5.72
2017-01-16T13:06:48.316Z,5.68
2017-01-16T13:07:48.330Z,5.66
2017-01-16T13:08:48.345Z,5.76
2017-01-16T13:09:48.368Z,5.82
2017-01-16T13:10:48.366Z,5.8
2017-01-16T13:11:48.376Z,5.84
2017-01-16T13:12:48.388Z,5.8
2017-01-16T13:13:48.406Z,5.84
2017-01-16T13:14:48.413Z,5.84
2017-01-16T13:15:48.421Z,5.9
2017-01-16T13:16:48.436Z,5.82
2017-01-16T13:17:48.455Z,5.84
2017-01-16T13:18:48.463Z,5.87
2017-01-16T13:19:48.472Z,5.89
2017-01-16T13:20:48.482Z,5.86